Terminal Aerodrome Forecast
Issued by NWS

Current Version | Previous Version | Graphics & Text | Print | Product List | Glossary On
Versions: 1 2 3 4 5 6 7 8 9 10 11 12 13 14 15 16 17 18 19 20 21 22 23 24 25 26 27 28 29
000
FTUS41 KILN 200200 AAB
TAFLCK
TAF AMD
KLCK 200251Z 2003/2024 14016G26KT 5SM -SHRA BR OVC028
      TEMPO 2003/2007 3SM -SHRA BR OVC012
     FM200700 18012G24KT P6SM VCSH OVC025
     FM201500 20018G28KT P6SM VCSH OVC035
     FM202300 26020G28KT P6SM VCSH OVC040=

USA.gov is the U.S. government's official web portal to all federal, state and local government web resources and services.